sensor_id;sensor_type;location;lat;lon;timestamp;P1;durP1;ratioP1;P2;durP2;ratioP2
2474;SDS011;1248;48.694;10.160;2023-12-28T00:00:34;21.20;;;14.10;;
2474;SDS011;1248;48.694;10.160;2023-12-28T00:03:02;23.43;;;15.33;;
2474;SDS011;1248;48.694;10.160;2023-12-28T00:05:29;27.23;;;17.70;;
2474;SDS011;1248;48.694;10.160;2023-12-28T00:07:57;40.33;;;25.80;;
2474;SDS011;1248;48.694;10.160;2023-12-28T00:10:25;27.10;;;19.20;;
2474;SDS011;1248;48.694;10.160;2023-12-28T00:12:52;25.63;;;15.53;;
2474;SDS011;1248;48.694;10.160;2023-12-28T00:15:21;21.40;;;14.70;;
2474;SDS011;1248;48.694;10.160;2023-12-28T00:17:48;23.20;;;14.40;;
2474;SDS011;1248;48.694;10.160;2023-12-28T00:20:15;20.80;;;14.50;;
2474;SDS011;1248;48.694;10.160;2023-12-28T00:22:42;22.40;;;14.90;;
2474;SDS011;1248;48.694;10.160;2023-12-28T00:25:11;19.73;;;13.90;;
2474;SDS011;1248;48.694;10.160;2023-12-28T00:27:38;23.80;;;14.67;;
2474;SDS011;1248;48.694;10.160;2023-12-28T00:30:05;28.73;;;14.77;;
2474;SDS011;1248;48.694;10.160;2023-12-28T00:32:33;16.67;;;13.30;;
2474;SDS011;1248;48.694;10.160;2023-12-28T00:35:00;20.80;;;14.53;;
2474;SDS011;1248;48.694;10.160;2023-12-28T00:37:27;23.17;;;12.50;;
2474;SDS011;1248;48.694;10.160;2023-12-28T00:39:55;22.53;;;14.27;;
2474;SDS011;1248;48.694;10.160;2023-12-28T00:42:23;16.67;;;13.60;;
2474;SDS011;1248;48.694;10.160;2023-12-28T00:44:50;17.10;;;11.40;;
2474;SDS011;1248;48.694;10.160;2023-12-28T00:47:18;12.93;;;10.80;;
2474;SDS011;1248;48.694;10.160;2023-12-28T00:49:45;16.77;;;11.00;;
2474;SDS011;1248;48.694;10.160;2023-12-28T00:52:12;15.83;;;12.73;;
2474;SDS011;1248;48.694;10.160;2023-12-28T00:54:39;17.50;;;12.00;;
2474;SDS011;1248;48.694;10.160;2023-12-28T00:57:06;16.13;;;11.00;;
2474;SDS011;1248;48.694;10.160;2023-12-28T00:59:34;20.20;;;12.10;;
2474;SDS011;1248;48.694;10.160;2023-12-28T01:02:01;15.87;;;11.70;;
2474;SDS011;1248;48.694;10.160;2023-12-28T01:04:28;12.77;;;11.20;;
2474;SDS011;1248;48.694;10.160;2023-12-28T01:06:55;16.33;;;11.90;;
2474;SDS011;1248;48.694;10.160;2023-12-28T01:09:24;17.17;;;12.00;;
2474;SDS011;1248;48.694;10.160;2023-12-28T01:11:51;16.60;;;11.23;;
2474;SDS011;1248;48.694;10.160;2023-12-28T01:14:18;19.40;;;12.10;;
2474;SDS011;1248;48.694;10.160;2023-12-28T01:16:46;21.73;;;13.87;;
2474;SDS011;1248;48.694;10.160;2023-12-28T01:19:13;15.37;;;10.70;;
2474;SDS011;1248;48.694;10.160;2023-12-28T01:21:40;24.50;;;13.40;;
2474;SDS011;1248;48.694;10.160;2023-12-28T01:24:07;20.70;;;12.63;;
2474;SDS011;1248;48.694;10.160;2023-12-28T01:26:34;19.20;;;11.63;;
2474;SDS011;1248;48.694;10.160;2023-12-28T01:29:01;16.63;;;11.87;;
2474;SDS011;1248;48.694;10.160;2023-12-28T01:31:28;20.80;;;12.53;;
2474;SDS011;1248;48.694;10.160;2023-12-28T01:33:57;15.73;;;11.13;;
2474;SDS011;1248;48.694;10.160;2023-12-28T01:36:24;17.13;;;11.70;;
2474;SDS011;1248;48.694;10.160;2023-12-28T01:38:51;18.90;;;11.93;;
2474;SDS011;1248;48.694;10.160;2023-12-28T01:41:18;15.80;;;11.37;;
2474;SDS011;1248;48.694;10.160;2023-12-28T01:43:45;12.70;;;11.30;;
2474;SDS011;1248;48.694;10.160;2023-12-28T01:46:13;10.70;;;9.70;;
2474;SDS011;1248;48.694;10.160;2023-12-28T01:48:42;13.20;;;10.80;;
2474;SDS011;1248;48.694;10.160;2023-12-28T01:51:13;13.00;;;10.63;;
2474;SDS011;1248;48.694;10.160;2023-12-28T01:53:40;20.17;;;10.03;;
2474;SDS011;1248;48.694;10.160;2023-12-28T01:56:08;14.10;;;10.30;;
2474;SDS011;1248;48.694;10.160;2023-12-28T01:58:35;16.40;;;11.17;;
2474;SDS011;1248;48.694;10.160;2023-12-28T02:01:03;18.50;;;11.40;;
2474;SDS011;1248;48.694;10.160;2023-12-28T02:03:30;13.00;;;11.30;;
2474;SDS011;1248;48.694;10.160;2023-12-28T02:05:57;18.67;;;11.30;;
2474;SDS011;1248;48.694;10.160;2023-12-28T02:08:27;15.57;;;10.03;;
2474;SDS011;1248;48.694;10.160;2023-12-28T02:10:57;13.47;;;10.67;;
2474;SDS011;1248;48.694;10.160;2023-12-28T02:13:24;18.50;;;12.30;;
2474;SDS011;1248;48.694;10.160;2023-12-28T02:15:53;12.00;;;9.40;;
2474;SDS011;1248;48.694;10.160;2023-12-28T02:18:22;12.93;;;10.07;;
2474;SDS011;1248;48.694;10.160;2023-12-28T02:20:51;18.40;;;10.50;;
2474;SDS011;1248;48.694;10.160;2023-12-28T02:23:18;8.70;;;7.77;;
2474;SDS011;1248;48.694;10.160;2023-12-28T02:25:46;10.97;;;9.00;;
2474;SDS011;1248;48.694;10.160;2023-12-28T02:28:13;13.20;;;9.37;;
2474;SDS011;1248;48.694;10.160;2023-12-28T02:30:41;12.10;;;10.13;;
2474;SDS011;1248;48.694;10.160;2023-12-28T02:33:10;12.23;;;9.77;;
2474;SDS011;1248;48.694;10.160;2023-12-28T02:35:42;13.43;;;10.17;;
2474;SDS011;1248;48.694;10.160;2023-12-28T02:38:10;11.50;;;9.57;;
2474;SDS011;1248;48.694;10.160;2023-12-28T02:40:38;11.13;;;7.60;;
2474;SDS011;1248;48.694;10.160;2023-12-28T02:43:07;19.67;;;10.50;;
2474;SDS011;1248;48.694;10.160;2023-12-28T02:45:35;21.80;;;11.00;;
2474;SDS011;1248;48.694;10.160;2023-12-28T02:48:03;15.83;;;9.43;;
2474;SDS011;1248;48.694;10.160;2023-12-28T02:50:31;17.67;;;9.27;;
2474;SDS011;1248;48.694;10.160;2023-12-28T02:52:58;14.97;;;9.17;;
2474;SDS011;1248;48.694;10.160;2023-12-28T02:55:25;17.03;;;10.03;;
2474;SDS011;1248;48.694;10.160;2023-12-28T02:57:54;12.77;;;9.07;;
2474;SDS011;1248;48.694;10.160;2023-12-28T03:00:23;10.17;;;8.50;;
2474;SDS011;1248;48.694;10.160;2023-12-28T03:02:50;13.43;;;9.30;;
2474;SDS011;1248;48.694;10.160;2023-12-28T03:05:17;12.33;;;9.13;;
2474;SDS011;1248;48.694;10.160;2023-12-28T03:07:44;9.60;;;7.93;;
2474;SDS011;1248;48.694;10.160;2023-12-28T03:10:12;11.97;;;8.77;;
2474;SDS011;1248;48.694;10.160;2023-12-28T03:12:39;12.03;;;8.53;;
2474;SDS011;1248;48.694;10.160;2023-12-28T03:15:06;11.80;;;9.43;;
2474;SDS011;1248;48.694;10.160;2023-12-28T03:17:35;10.70;;;8.10;;
2474;SDS011;1248;48.694;10.160;2023-12-28T03:20:02;10.80;;;8.37;;
2474;SDS011;1248;48.694;10.160;2023-12-28T03:22:30;13.40;;;9.07;;
2474;SDS011;1248;48.694;10.160;2023-12-28T03:24:57;14.70;;;9.37;;
2474;SDS011;1248;48.694;10.160;2023-12-28T03:27:24;11.17;;;9.30;;
2474;SDS011;1248;48.694;10.160;2023-12-28T03:29:51;10.23;;;8.87;;
2474;SDS011;1248;48.694;10.160;2023-12-28T03:32:18;12.63;;;8.50;;
2474;SDS011;1248;48.694;10.160;2023-12-28T03:34:46;12.40;;;9.17;;
2474;SDS011;1248;48.694;10.160;2023-12-28T03:37:13;15.77;;;8.83;;
2474;SDS011;1248;48.694;10.160;2023-12-28T03:39:41;10.03;;;8.07;;
2474;SDS011;1248;48.694;10.160;2023-12-28T03:42:08;13.03;;;8.23;;
2474;SDS011;1248;48.694;10.160;2023-12-28T03:44:36;29.87;;;13.83;;
2474;SDS011;1248;48.694;10.160;2023-12-28T03:47:03;16.63;;;12.10;;
2474;SDS011;1248;48.694;10.160;2023-12-28T03:49:30;14.60;;;9.73;;
2474;SDS011;1248;48.694;10.160;2023-12-28T03:51:58;12.00;;;9.23;;
2474;SDS011;1248;48.694;10.160;2023-12-28T03:54:26;11.53;;;9.00;;
2474;SDS011;1248;48.694;10.160;2023-12-28T03:56:53;11.27;;;9.50;;
2474;SDS011;1248;48.694;10.160;2023-12-28T03:59:20;11.40;;;8.50;;
2474;SDS011;1248;48.694;10.160;2023-12-28T04:01:47;14.03;;;9.10;;
2474;SDS011;1248;48.694;10.160;2023-12-28T04:04:14;18.07;;;10.30;;
2474;SDS011;1248;48.694;10.160;2023-12-28T04:06:41;16.67;;;10.63;;
2474;SDS011;1248;48.694;10.160;2023-12-28T04:09:12;23.87;;;11.47;;
2474;SDS011;1248;48.694;10.160;2023-12-28T04:11:39;17.03;;;10.00;;
2474;SDS011;1248;48.694;10.160;2023-12-28T04:14:06;13.50;;;8.87;;
2474;SDS011;1248;48.694;10.160;2023-12-28T04:16:33;24.37;;;13.20;;
2474;SDS011;1248;48.694;10.160;2023-12-28T04:19:00;27.50;;;14.10;;
2474;SDS011;1248;48.694;10.160;2023-12-28T04:21:27;25.57;;;14.03;;
2474;SDS011;1248;48.694;10.160;2023-12-28T04:23:54;35.23;;;14.43;;
2474;SDS011;1248;48.694;10.160;2023-12-28T04:26:23;19.43;;;13.67;;
2474;SDS011;1248;48.694;10.160;2023-12-28T04:28:50;14.20;;;10.70;;
2474;SDS011;1248;48.694;10.160;2023-12-28T04:31:17;17.80;;;11.10;;
2474;SDS011;1248;48.694;10.160;2023-12-28T04:33:44;17.27;;;10.80;;
2474;SDS011;1248;48.694;10.160;2023-12-28T04:36:11;12.30;;;10.87;;
2474;SDS011;1248;48.694;10.160;2023-12-28T04:38:38;13.13;;;9.83;;
2474;SDS011;1248;48.694;10.160;2023-12-28T04:41:05;14.47;;;9.23;;
2474;SDS011;1248;48.694;10.160;2023-12-28T04:43:34;12.90;;;8.97;;
2474;SDS011;1248;48.694;10.160;2023-12-28T04:46:02;14.63;;;8.23;;
2474;SDS011;1248;48.694;10.160;2023-12-28T04:48:29;12.73;;;9.10;;
2474;SDS011;1248;48.694;10.160;2023-12-28T04:50:57;14.33;;;9.10;;
2474;SDS011;1248;48.694;10.160;2023-12-28T04:53:24;19.43;;;12.00;;
2474;SDS011;1248;48.694;10.160;2023-12-28T04:55:51;17.70;;;10.77;;
2474;SDS011;1248;48.694;10.160;2023-12-28T04:58:18;18.90;;;11.13;;
2474;SDS011;1248;48.694;10.160;2023-12-28T05:00:46;10.20;;;8.80;;
2474;SDS011;1248;48.694;10.160;2023-12-28T05:03:13;11.33;;;8.13;;
2474;SDS011;1248;48.694;10.160;2023-12-28T05:05:40;10.53;;;8.83;;
2474;SDS011;1248;48.694;10.160;2023-12-28T05:08:07;14.40;;;9.67;;
2474;SDS011;1248;48.694;10.160;2023-12-28T05:10:34;14.20;;;9.90;;
2474;SDS011;1248;48.694;10.160;2023-12-28T05:13:01;15.03;;;9.87;;
2474;SDS011;1248;48.694;10.160;2023-12-28T05:15:28;20.83;;;11.33;;
2474;SDS011;1248;48.694;10.160;2023-12-28T05:17:56;19.90;;;10.93;;
2474;SDS011;1248;48.694;10.160;2023-12-28T05:20:23;19.67;;;11.00;;
2474;SDS011;1248;48.694;10.160;2023-12-28T05:22:50;11.97;;;9.23;;
2474;SDS011;1248;48.694;10.160;2023-12-28T05:25:17;12.30;;;9.70;;
2474;SDS011;1248;48.694;10.160;2023-12-28T05:27:44;16.57;;;10.27;;
2474;SDS011;1248;48.694;10.160;2023-12-28T05:30:11;10.03;;;7.70;;
2474;SDS011;1248;48.694;10.160;2023-12-28T05:32:39;12.40;;;9.07;;
2474;SDS011;1248;48.694;10.160;2023-12-28T05:35:07;9.87;;;8.50;;
2474;SDS011;1248;48.694;10.160;2023-12-28T05:37:34;12.63;;;9.27;;
2474;SDS011;1248;48.694;10.160;2023-12-28T05:40:01;10.90;;;8.13;;
2474;SDS011;1248;48.694;10.160;2023-12-28T05:42:29;12.20;;;8.10;;
2474;SDS011;1248;48.694;10.160;2023-12-28T05:44:56;8.17;;;7.33;;
2474;SDS011;1248;48.694;10.160;2023-12-28T05:47:23;8.70;;;7.90;;
2474;SDS011;1248;48.694;10.160;2023-12-28T05:49:50;19.10;;;11.77;;
2474;SDS011;1248;48.694;10.160;2023-12-28T05:52:19;17.03;;;10.80;;
2474;SDS011;1248;48.694;10.160;2023-12-28T05:54:46;11.90;;;9.33;;
2474;SDS011;1248;48.694;10.160;2023-12-28T05:57:13;12.83;;;9.40;;
2474;SDS011;1248;48.694;10.160;2023-12-28T05:59:40;13.27;;;8.93;;
2474;SDS011;1248;48.694;10.160;2023-12-28T06:02:07;12.97;;;9.67;;
2474;SDS011;1248;48.694;10.160;2023-12-28T06:04:34;12.20;;;8.87;;
2474;SDS011;1248;48.694;10.160;2023-12-28T06:07:02;15.43;;;9.40;;
2474;SDS011;1248;48.694;10.160;2023-12-28T06:09:31;18.53;;;9.10;;
2474;SDS011;1248;48.694;10.160;2023-12-28T06:11:58;12.47;;;7.53;;
2474;SDS011;1248;48.694;10.160;2023-12-28T06:14:25;9.87;;;7.70;;
2474;SDS011;1248;48.694;10.160;2023-12-28T06:16:52;10.17;;;8.87;;
2474;SDS011;1248;48.694;10.160;2023-12-28T06:19:19;14.33;;;9.30;;
2474;SDS011;1248;48.694;10.160;2023-12-28T06:21:47;11.10;;;7.90;;
2474;SDS011;1248;48.694;10.160;2023-12-28T06:24:14;15.73;;;8.03;;
2474;SDS011;1248;48.694;10.160;2023-12-28T06:26:43;14.13;;;8.60;;
2474;SDS011;1248;48.694;10.160;2023-12-28T06:29:10;12.67;;;8.43;;
2474;SDS011;1248;48.694;10.160;2023-12-28T06:31:38;11.70;;;8.47;;
2474;SDS011;1248;48.694;10.160;2023-12-28T06:34:05;12.90;;;8.73;;
2474;SDS011;1248;48.694;10.160;2023-12-28T06:36:32;9.13;;;7.43;;
2474;SDS011;1248;48.694;10.160;2023-12-28T06:39:00;11.00;;;7.93;;
2474;SDS011;1248;48.694;10.160;2023-12-28T06:41:27;10.43;;;7.10;;
2474;SDS011;1248;48.694;10.160;2023-12-28T06:43:55;8.13;;;7.33;;
2474;SDS011;1248;48.694;10.160;2023-12-28T06:46:22;10.70;;;8.13;;
2474;SDS011;1248;48.694;10.160;2023-12-28T06:48:49;7.37;;;6.70;;
2474;SDS011;1248;48.694;10.160;2023-12-28T06:51:16;18.23;;;11.20;;
2474;SDS011;1248;48.694;10.160;2023-12-28T06:53:44;25.97;;;16.50;;
2474;SDS011;1248;48.694;10.160;2023-12-28T06:56:11;20.73;;;13.20;;
2474;SDS011;1248;48.694;10.160;2023-12-28T06:58:39;14.30;;;9.03;;
2474;SDS011;1248;48.694;10.160;2023-12-28T07:01:07;8.80;;;7.90;;
2474;SDS011;1248;48.694;10.160;2023-12-28T07:03:34;11.30;;;7.33;;
2474;SDS011;1248;48.694;10.160;2023-12-28T07:06:01;11.37;;;7.30;;
2474;SDS011;1248;48.694;10.160;2023-12-28T07:08:29;14.13;;;8.27;;
2474;SDS011;1248;48.694;10.160;2023-12-28T07:10:56;9.83;;;7.73;;
2474;SDS011;1248;48.694;10.160;2023-12-28T07:13:23;11.07;;;7.40;;
2474;SDS011;1248;48.694;10.160;2023-12-28T07:15:50;10.87;;;8.80;;
2474;SDS011;1248;48.694;10.160;2023-12-28T07:18:20;11.00;;;8.13;;
2474;SDS011;1248;48.694;10.160;2023-12-28T07:20:47;13.97;;;8.57;;
2474;SDS011;1248;48.694;10.160;2023-12-28T07:23:14;9.43;;;7.90;;
2474;SDS011;1248;48.694;10.160;2023-12-28T07:25:41;13.43;;;8.43;;
2474;SDS011;1248;48.694;10.160;2023-12-28T07:28:08;11.87;;;9.73;;
2474;SDS011;1248;48.694;10.160;2023-12-28T07:30:35;10.70;;;8.03;;
2474;SDS011;1248;48.694;10.160;2023-12-28T07:33:03;13.60;;;8.97;;
2474;SDS011;1248;48.694;10.160;2023-12-28T07:35:32;15.40;;;9.90;;
2474;SDS011;1248;48.694;10.160;2023-12-28T07:37:59;14.33;;;8.90;;
2474;SDS011;1248;48.694;10.160;2023-12-28T07:40:26;16.53;;;10.90;;
2474;SDS011;1248;48.694;10.160;2023-12-28T07:42:53;17.73;;;9.00;;
2474;SDS011;1248;48.694;10.160;2023-12-28T07:45:20;15.23;;;11.90;;
2474;SDS011;1248;48.694;10.160;2023-12-28T07:47:49;16.70;;;10.10;;
2474;SDS011;1248;48.694;10.160;2023-12-28T07:50:16;24.40;;;10.50;;
2474;SDS011;1248;48.694;10.160;2023-12-28T07:52:45;17.10;;;10.43;;
2474;SDS011;1248;48.694;10.160;2023-12-28T07:55:13;14.67;;;11.57;;
2474;SDS011;1248;48.694;10.160;2023-12-28T07:57:40;19.33;;;10.90;;
2474;SDS011;1248;48.694;10.160;2023-12-28T08:00:08;14.57;;;10.13;;
2474;SDS011;1248;48.694;10.160;2023-12-28T08:02:35;18.67;;;11.33;;
2474;SDS011;1248;48.694;10.160;2023-12-28T08:05:03;12.10;;;8.93;;
2474;SDS011;1248;48.694;10.160;2023-12-28T08:07:30;18.17;;;9.87;;
2474;SDS011;1248;48.694;10.160;2023-12-28T08:09:59;18.03;;;11.47;;
2474;SDS011;1248;48.694;10.160;2023-12-28T08:12:26;28.03;;;11.83;;
2474;SDS011;1248;48.694;10.160;2023-12-28T08:14:54;15.63;;;11.00;;
2474;SDS011;1248;48.694;10.160;2023-12-28T08:17:21;20.00;;;12.33;;
2474;SDS011;1248;48.694;10.160;2023-12-28T08:19:48;21.23;;;10.53;;
2474;SDS011;1248;48.694;10.160;2023-12-28T08:22:15;18.23;;;12.17;;
2474;SDS011;1248;48.694;10.160;2023-12-28T08:24:42;18.23;;;10.30;;
2474;SDS011;1248;48.694;10.160;2023-12-28T08:27:11;17.30;;;10.00;;
2474;SDS011;1248;48.694;10.160;2023-12-28T08:29:39;14.17;;;10.73;;
2474;SDS011;1248;48.694;10.160;2023-12-28T08:32:07;15.33;;;10.50;;
2474;SDS011;1248;48.694;10.160;2023-12-28T08:34:34;14.77;;;11.37;;
2474;SDS011;1248;48.694;10.160;2023-12-28T08:37:01;16.13;;;10.93;;
2474;SDS011;1248;48.694;10.160;2023-12-28T08:39:29;16.33;;;10.20;;
2474;SDS011;1248;48.694;10.160;2023-12-28T08:41:56;14.07;;;10.37;;
2474;SDS011;1248;48.694;10.160;2023-12-28T08:44:24;15.30;;;11.47;;
2474;SDS011;1248;48.694;10.160;2023-12-28T08:46:51;15.70;;;10.50;;
2474;SDS011;1248;48.694;10.160;2023-12-28T08:49:18;17.40;;;10.10;;
2474;SDS011;1248;48.694;10.160;2023-12-28T08:51:45;19.37;;;11.07;;
2474;SDS011;1248;48.694;10.160;2023-12-28T08:54:12;14.43;;;9.40;;
2474;SDS011;1248;48.694;10.160;2023-12-28T08:56:39;21.33;;;10.40;;
2474;SDS011;1248;48.694;10.160;2023-12-28T08:59:06;16.83;;;10.40;;
2474;SDS011;1248;48.694;10.160;2023-12-28T09:01:35;16.00;;;10.10;;
2474;SDS011;1248;48.694;10.160;2023-12-28T09:04:02;12.90;;;9.43;;
2474;SDS011;1248;48.694;10.160;2023-12-28T09:06:30;15.03;;;8.50;;
2474;SDS011;1248;48.694;10.160;2023-12-28T09:08:57;12.17;;;9.70;;
2474;SDS011;1248;48.694;10.160;2023-12-28T09:11:23;17.80;;;8.73;;
2474;SDS011;1248;48.694;10.160;2023-12-28T09:13:51;12.80;;;8.77;;
2474;SDS011;1248;48.694;10.160;2023-12-28T09:16:18;12.33;;;9.00;;
2474;SDS011;1248;48.694;10.160;2023-12-28T09:18:46;16.17;;;10.13;;
2474;SDS011;1248;48.694;10.160;2023-12-28T09:21:13;15.53;;;11.60;;
2474;SDS011;1248;48.694;10.160;2023-12-28T09:23:40;23.17;;;12.97;;
2474;SDS011;1248;48.694;10.160;2023-12-28T09:26:07;15.10;;;11.10;;
2474;SDS011;1248;48.694;10.160;2023-12-28T09:28:34;20.67;;;11.97;;
2474;SDS011;1248;48.694;10.160;2023-12-28T09:31:01;20.97;;;11.40;;
2474;SDS011;1248;48.694;10.160;2023-12-28T09:33:29;15.93;;;10.07;;
2474;SDS011;1248;48.694;10.160;2023-12-28T09:35:58;14.97;;;9.77;;
2474;SDS011;1248;48.694;10.160;2023-12-28T09:38:25;17.93;;;10.10;;
2474;SDS011;1248;48.694;10.160;2023-12-28T09:40:53;24.43;;;11.87;;
2474;SDS011;1248;48.694;10.160;2023-12-28T09:43:22;20.23;;;12.17;;
2474;SDS011;1248;48.694;10.160;2023-12-28T09:45:51;17.53;;;12.20;;
2474;SDS011;1248;48.694;10.160;2023-12-28T09:48:18;23.73;;;13.73;;
2474;SDS011;1248;48.694;10.160;2023-12-28T09:50:48;20.77;;;13.73;;
2474;SDS011;1248;48.694;10.160;2023-12-28T09:53:17;20.40;;;12.57;;
2474;SDS011;1248;48.694;10.160;2023-12-28T09:55:44;18.77;;;13.07;;
2474;SDS011;1248;48.694;10.160;2023-12-28T09:58:12;19.80;;;12.33;;
2474;SDS011;1248;48.694;10.160;2023-12-28T10:00:43;24.13;;;14.30;;
2474;SDS011;1248;48.694;10.160;2023-12-28T10:03:12;24.77;;;13.83;;
2474;SDS011;1248;48.694;10.160;2023-12-28T10:05:40;21.50;;;13.10;;
2474;SDS011;1248;48.694;10.160;2023-12-28T10:08:07;28.10;;;15.93;;
2474;SDS011;1248;48.694;10.160;2023-12-28T10:10:36;29.20;;;16.17;;
2474;SDS011;1248;48.694;10.160;2023-12-28T10:13:03;26.50;;;15.27;;
2474;SDS011;1248;48.694;10.160;2023-12-28T10:15:30;66.27;;;30.27;;
2474;SDS011;1248;48.694;10.160;2023-12-28T10:17:57;57.53;;;26.70;;
2474;SDS011;1248;48.694;10.160;2023-12-28T10:20:26;68.87;;;31.53;;
2474;SDS011;1248;48.694;10.160;2023-12-28T10:22:53;75.90;;;33.70;;
2474;SDS011;1248;48.694;10.160;2023-12-28T10:25:20;33.57;;;18.87;;
2474;SDS011;1248;48.694;10.160;2023-12-28T10:27:51;33.53;;;16.50;;
2474;SDS011;1248;48.694;10.160;2023-12-28T10:30:19;33.63;;;18.50;;
2474;SDS011;1248;48.694;10.160;2023-12-28T10:32:46;29.80;;;17.27;;
2474;SDS011;1248;48.694;10.160;2023-12-28T10:35:14;37.27;;;19.23;;
2474;SDS011;1248;48.694;10.160;2023-12-28T10:37:42;28.60;;;16.70;;
2474;SDS011;1248;48.694;10.160;2023-12-28T10:40:11;23.43;;;15.33;;
2474;SDS011;1248;48.694;10.160;2023-12-28T10:42:42;24.97;;;14.50;;
2474;SDS011;1248;48.694;10.160;2023-12-28T10:45:16;18.07;;;12.40;;
2474;SDS011;1248;48.694;10.160;2023-12-28T10:47:48;17.20;;;12.33;;
2474;SDS011;1248;48.694;10.160;2023-12-28T10:50:21;24.90;;;13.50;;
2474;SDS011;1248;48.694;10.160;2023-12-28T10:52:50;16.70;;;12.67;;
2474;SDS011;1248;48.694;10.160;2023-12-28T10:55:23;19.67;;;13.43;;
2474;SDS011;1248;48.694;10.160;2023-12-28T10:57:57;13.73;;;9.23;;
2474;SDS011;1248;48.694;10.160;2023-12-28T11:00:29;8.83;;;7.97;;
2474;SDS011;1248;48.694;10.160;2023-12-28T11:02:58;12.70;;;9.37;;
2474;SDS011;1248;48.694;10.160;2023-12-28T11:05:28;9.30;;;7.53;;
2474;SDS011;1248;48.694;10.160;2023-12-28T11:07:56;13.50;;;7.30;;
2474;SDS011;1248;48.694;10.160;2023-12-28T11:10:24;12.90;;;7.60;;
2474;SDS011;1248;48.694;10.160;2023-12-28T11:12:52;9.90;;;7.17;;
2474;SDS011;1248;48.694;10.160;2023-12-28T11:15:20;12.90;;;8.80;;
2474;SDS011;1248;48.694;10.160;2023-12-28T11:17:50;13.17;;;8.07;;
2474;SDS011;1248;48.694;10.160;2023-12-28T11:20:17;11.60;;;8.70;;
2474;SDS011;1248;48.694;10.160;2023-12-28T11:22:44;12.10;;;8.20;;
2474;SDS011;1248;48.694;10.160;2023-12-28T11:25:15;15.47;;;9.20;;
2474;SDS011;1248;48.694;10.160;2023-12-28T11:27:44;22.87;;;12.20;;
2474;SDS011;1248;48.694;10.160;2023-12-28T11:30:12;16.30;;;9.47;;
2474;SDS011;1248;48.694;10.160;2023-12-28T11:32:40;10.30;;;8.70;;
2474;SDS011;1248;48.694;10.160;2023-12-28T11:35:09;15.73;;;8.60;;
2474;SDS011;1248;48.694;10.160;2023-12-28T11:37:38;8.87;;;7.97;;
2474;SDS011;1248;48.694;10.160;2023-12-28T11:40:10;9.60;;;7.40;;
2474;SDS011;1248;48.694;10.160;2023-12-28T11:42:47;13.03;;;8.80;;
2474;SDS011;1248;48.694;10.160;2023-12-28T11:45:16;8.17;;;7.37;;
2474;SDS011;1248;48.694;10.160;2023-12-28T11:47:43;10.30;;;8.00;;
2474;SDS011;1248;48.694;10.160;2023-12-28T11:50:12;13.03;;;8.40;;
2474;SDS011;1248;48.694;10.160;2023-12-28T11:52:40;11.37;;;9.10;;
2474;SDS011;1248;48.694;10.160;2023-12-28T11:55:07;11.03;;;8.23;;
2474;SDS011;1248;48.694;10.160;2023-12-28T11:57:36;9.00;;;7.67;;
2474;SDS011;1248;48.694;10.160;2023-12-28T12:00:04;9.97;;;7.73;;
2474;SDS011;1248;48.694;10.160;2023-12-28T12:02:33;9.43;;;7.07;;
2474;SDS011;1248;48.694;10.160;2023-12-28T12:05:00;15.63;;;7.40;;
2474;SDS011;1248;48.694;10.160;2023-12-28T12:07:29;11.10;;;8.40;;
2474;SDS011;1248;48.694;10.160;2023-12-28T12:09:57;9.23;;;7.50;;
2474;SDS011;1248;48.694;10.160;2023-12-28T12:12:24;9.53;;;7.33;;
2474;SDS011;1248;48.694;10.160;2023-12-28T12:14:51;12.20;;;8.53;;
2474;SDS011;1248;48.694;10.160;2023-12-28T12:17:18;11.37;;;7.27;;
2474;SDS011;1248;48.694;10.160;2023-12-28T12:19:46;11.30;;;8.40;;
2474;SDS011;1248;48.694;10.160;2023-12-28T12:22:16;12.07;;;8.97;;
2474;SDS011;1248;48.694;10.160;2023-12-28T12:24:46;12.30;;;8.03;;
2474;SDS011;1248;48.694;10.160;2023-12-28T12:27:15;10.50;;;8.83;;
2474;SDS011;1248;48.694;10.160;2023-12-28T12:29:43;16.60;;;8.97;;
2474;SDS011;1248;48.694;10.160;2023-12-28T12:32:10;13.10;;;8.17;;
2474;SDS011;1248;48.694;10.160;2023-12-28T12:34:38;11.03;;;7.23;;
2474;SDS011;1248;48.694;10.160;2023-12-28T12:37:05;10.73;;;7.70;;
2474;SDS011;1248;48.694;10.160;2023-12-28T12:39:32;9.70;;;6.53;;
2474;SDS011;1248;48.694;10.160;2023-12-28T12:42:01;11.60;;;7.83;;
2474;SDS011;1248;48.694;10.160;2023-12-28T12:44:28;9.70;;;6.60;;
2474;SDS011;1248;48.694;10.160;2023-12-28T12:46:56;10.47;;;7.00;;
2474;SDS011;1248;48.694;10.160;2023-12-28T12:49:24;9.13;;;6.70;;
2474;SDS011;1248;48.694;10.160;2023-12-28T12:51:51;9.23;;;6.03;;
2474;SDS011;1248;48.694;10.160;2023-12-28T12:54:18;11.67;;;6.43;;
2474;SDS011;1248;48.694;10.160;2023-12-28T12:56:45;10.23;;;6.77;;
2474;SDS011;1248;48.694;10.160;2023-12-28T12:59:14;10.43;;;7.33;;
2474;SDS011;1248;48.694;10.160;2023-12-28T13:01:43;8.53;;;6.63;;
2474;SDS011;1248;48.694;10.160;2023-12-28T13:04:10;10.60;;;7.20;;
2474;SDS011;1248;48.694;10.160;2023-12-28T13:06:37;11.80;;;7.60;;
2474;SDS011;1248;48.694;10.160;2023-12-28T13:09:04;12.30;;;8.87;;
2474;SDS011;1248;48.694;10.160;2023-12-28T13:11:32;13.33;;;9.33;;
2474;SDS011;1248;48.694;10.160;2023-12-28T13:14:00;13.50;;;8.20;;
2474;SDS011;1248;48.694;10.160;2023-12-28T13:16:28;12.20;;;7.60;;
2474;SDS011;1248;48.694;10.160;2023-12-28T13:18:55;10.20;;;7.80;;
2474;SDS011;1248;48.694;10.160;2023-12-28T13:21:23;9.70;;;7.43;;
2474;SDS011;1248;48.694;10.160;2023-12-28T13:23:50;14.00;;;7.77;;
2474;SDS011;1248;48.694;10.160;2023-12-28T13:26:17;13.03;;;9.47;;
2474;SDS011;1248;48.694;10.160;2023-12-28T13:28:44;16.90;;;9.67;;
2474;SDS011;1248;48.694;10.160;2023-12-28T13:31:11;15.10;;;9.90;;
2474;SDS011;1248;48.694;10.160;2023-12-28T13:33:40;17.87;;;9.33;;
2474;SDS011;1248;48.694;10.160;2023-12-28T13:36:07;13.80;;;9.47;;
2474;SDS011;1248;48.694;10.160;2023-12-28T13:38:34;10.50;;;8.87;;
2474;SDS011;1248;48.694;10.160;2023-12-28T13:41:01;12.00;;;9.60;;
2474;SDS011;1248;48.694;10.160;2023-12-28T13:43:29;10.63;;;8.90;;
2474;SDS011;1248;48.694;10.160;2023-12-28T13:45:56;12.43;;;7.00;;
2474;SDS011;1248;48.694;10.160;2023-12-28T13:48:23;9.30;;;6.70;;
2474;SDS011;1248;48.694;10.160;2023-12-28T13:50:51;9.80;;;5.90;;
2474;SDS011;1248;48.694;10.160;2023-12-28T13:53:18;8.63;;;6.23;;
2474;SDS011;1248;48.694;10.160;2023-12-28T13:55:45;8.37;;;6.63;;
2474;SDS011;1248;48.694;10.160;2023-12-28T13:58:12;10.07;;;7.00;;
2474;SDS011;1248;48.694;10.160;2023-12-28T14:00:39;11.23;;;7.77;;
2474;SDS011;1248;48.694;10.160;2023-12-28T14:03:07;7.60;;;5.63;;
2474;SDS011;1248;48.694;10.160;2023-12-28T14:05:34;14.20;;;8.97;;
2474;SDS011;1248;48.694;10.160;2023-12-28T14:08:03;14.10;;;7.73;;
2474;SDS011;1248;48.694;10.160;2023-12-28T14:10:31;13.33;;;9.40;;
2474;SDS011;1248;48.694;10.160;2023-12-28T14:12:58;13.47;;;8.50;;
2474;SDS011;1248;48.694;10.160;2023-12-28T14:15:25;11.90;;;10.20;;
2474;SDS011;1248;48.694;10.160;2023-12-28T14:17:52;11.50;;;7.53;;
2474;SDS011;1248;48.694;10.160;2023-12-28T14:20:19;15.67;;;7.60;;
2474;SDS011;1248;48.694;10.160;2023-12-28T14:22:46;19.47;;;10.03;;
2474;SDS011;1248;48.694;10.160;2023-12-28T14:25:16;8.77;;;6.57;;
2474;SDS011;1248;48.694;10.160;2023-12-28T14:27:44;10.17;;;5.70;;
2474;SDS011;1248;48.694;10.160;2023-12-28T14:30:11;11.90;;;6.43;;
2474;SDS011;1248;48.694;10.160;2023-12-28T14:32:40;11.53;;;7.63;;
2474;SDS011;1248;48.694;10.160;2023-12-28T14:35:07;8.43;;;6.03;;
2474;SDS011;1248;48.694;10.160;2023-12-28T14:37:35;7.97;;;5.50;;
2474;SDS011;1248;48.694;10.160;2023-12-28T14:40:03;18.50;;;10.17;;
2474;SDS011;1248;48.694;10.160;2023-12-28T14:42:33;8.67;;;6.10;;
2474;SDS011;1248;48.694;10.160;2023-12-28T14:45:00;10.03;;;7.40;;